sensor_id;sensor_type;location;lat;lon;timestamp;P1;durP1;ratioP1;P2;durP2;ratioP2
52386;SDS011;38317;53.084;6.960;2022-12-07T00:01:11;2.35;;;0.90;;
52386;SDS011;38317;53.084;6.960;2022-12-07T00:03:39;3.88;;;1.20;;
52386;SDS011;38317;53.084;6.960;2022-12-07T00:06:07;8.43;;;1.40;;
52386;SDS011;38317;53.084;6.960;2022-12-07T00:08:35;6.60;;;1.58;;
52386;SDS011;38317;53.084;6.960;2022-12-07T00:11:08;5.13;;;1.52;;
52386;SDS011;38317;53.084;6.960;2022-12-07T00:13:40;7.82;;;1.58;;
52386;SDS011;38317;53.084;6.960;2022-12-07T00:16:08;4.78;;;1.15;;
52386;SDS011;38317;53.084;6.960;2022-12-07T00:18:38;4.28;;;1.25;;
52386;SDS011;38317;53.084;6.960;2022-12-07T00:21:15;3.55;;;1.05;;
52386;SDS011;38317;53.084;6.960;2022-12-07T00:23:43;5.72;;;1.30;;
52386;SDS011;38317;53.084;6.960;2022-12-07T00:26:13;3.88;;;0.85;;
52386;SDS011;38317;53.084;6.960;2022-12-07T00:28:39;5.68;;;0.88;;
52386;SDS011;38317;53.084;6.960;2022-12-07T00:31:06;6.15;;;0.95;;
52386;SDS011;38317;53.084;6.960;2022-12-07T00:33:34;5.25;;;1.08;;
52386;SDS011;38317;53.084;6.960;2022-12-07T00:36:01;4.50;;;0.75;;
52386;SDS011;38317;53.084;6.960;2022-12-07T00:38:30;3.95;;;0.70;;
52386;SDS011;38317;53.084;6.960;2022-12-07T00:40:58;5.90;;;0.73;;
52386;SDS011;38317;53.084;6.960;2022-12-07T00:43:25;2.08;;;0.30;;
52386;SDS011;38317;53.084;6.960;2022-12-07T00:45:52;3.28;;;0.50;;
52386;SDS011;38317;53.084;6.960;2022-12-07T00:48:18;2.55;;;0.60;;
52386;SDS011;38317;53.084;6.960;2022-12-07T00:50:44;6.88;;;0.85;;
52386;SDS011;38317;53.084;6.960;2022-12-07T00:53:10;4.72;;;0.93;;
52386;SDS011;38317;53.084;6.960;2022-12-07T00:55:36;3.03;;;0.50;;
52386;SDS011;38317;53.084;6.960;2022-12-07T00:58:02;14.60;;;1.48;;
52386;SDS011;38317;53.084;6.960;2022-12-07T01:00:29;3.42;;;0.50;;
52386;SDS011;38317;53.084;6.960;2022-12-07T01:02:55;3.40;;;0.68;;
52386;SDS011;38317;53.084;6.960;2022-12-07T01:05:21;3.65;;;0.57;;
52386;SDS011;38317;53.084;6.960;2022-12-07T01:07:47;5.15;;;0.68;;
52386;SDS011;38317;53.084;6.960;2022-12-07T01:10:13;7.35;;;0.80;;
52386;SDS011;38317;53.084;6.960;2022-12-07T01:12:39;4.32;;;0.40;;
52386;SDS011;38317;53.084;6.960;2022-12-07T01:15:06;2.90;;;0.55;;
52386;SDS011;38317;53.084;6.960;2022-12-07T01:17:32;3.13;;;0.38;;
52386;SDS011;38317;53.084;6.960;2022-12-07T01:19:59;5.82;;;0.45;;
52386;SDS011;38317;53.084;6.960;2022-12-07T01:22:25;3.08;;;0.63;;
52386;SDS011;38317;53.084;6.960;2022-12-07T01:24:51;1.80;;;0.40;;
52386;SDS011;38317;53.084;6.960;2022-12-07T01:27:17;5.45;;;1.23;;
52386;SDS011;38317;53.084;6.960;2022-12-07T01:29:42;1.75;;;0.40;;
52386;SDS011;38317;53.084;6.960;2022-12-07T01:32:08;8.50;;;0.52;;
52386;SDS011;38317;53.084;6.960;2022-12-07T01:34:34;6.82;;;0.70;;
52386;SDS011;38317;53.084;6.960;2022-12-07T01:36:59;4.07;;;0.47;;
52386;SDS011;38317;53.084;6.960;2022-12-07T01:39:25;3.22;;;0.38;;
52386;SDS011;38317;53.084;6.960;2022-12-07T01:41:52;1.25;;;0.45;;
52386;SDS011;38317;53.084;6.960;2022-12-07T01:44:19;5.68;;;0.75;;
52386;SDS011;38317;53.084;6.960;2022-12-07T01:46:53;4.47;;;0.30;;
52386;SDS011;38317;53.084;6.960;2022-12-07T01:49:23;0.98;;;0.20;;
52386;SDS011;38317;53.084;6.960;2022-12-07T01:54:40;1.83;;;0.32;;
52386;SDS011;38317;53.084;6.960;2022-12-07T01:57:07;3.90;;;0.70;;
52386;SDS011;38317;53.084;6.960;2022-12-07T01:59:33;1.95;;;0.30;;
52386;SDS011;38317;53.084;6.960;2022-12-07T02:02:00;3.85;;;0.57;;
52386;SDS011;38317;53.084;6.960;2022-12-07T02:04:29;2.20;;;0.52;;
52386;SDS011;38317;53.084;6.960;2022-12-07T02:06:55;3.45;;;0.35;;
52386;SDS011;38317;53.084;6.960;2022-12-07T02:09:22;2.85;;;0.32;;
52386;SDS011;38317;53.084;6.960;2022-12-07T02:11:48;2.05;;;0.35;;
52386;SDS011;38317;53.084;6.960;2022-12-07T02:14:15;7.78;;;0.55;;
52386;SDS011;38317;53.084;6.960;2022-12-07T02:17:17;4.85;;;0.73;;
52386;SDS011;38317;53.084;6.960;2022-12-07T02:25:08;6.22;;;0.93;;
52386;SDS011;38317;53.084;6.960;2022-12-07T02:28:01;3.47;;;0.40;;
52386;SDS011;38317;53.084;6.960;2022-12-07T02:30:32;2.88;;;0.40;;
52386;SDS011;38317;53.084;6.960;2022-12-07T02:33:05;3.13;;;0.20;;
52386;SDS011;38317;53.084;6.960;2022-12-07T02:38:20;3.08;;;0.20;;
52386;SDS011;38317;53.084;6.960;2022-12-07T02:41:12;1.88;;;0.30;;
52386;SDS011;38317;53.084;6.960;2022-12-07T02:43:54;3.23;;;0.30;;
52386;SDS011;38317;53.084;6.960;2022-12-07T02:46:25;3.08;;;0.40;;
52386;SDS011;38317;53.084;6.960;2022-12-07T02:48:55;1.25;;;0.20;;
52386;SDS011;38317;53.084;6.960;2022-12-07T02:51:21;2.15;;;0.30;;
52386;SDS011;38317;53.084;6.960;2022-12-07T02:53:47;2.47;;;0.20;;
52386;SDS011;38317;53.084;6.960;2022-12-07T02:59:16;2.40;;;0.40;;
52386;SDS011;38317;53.084;6.960;2022-12-07T03:10:02;3.53;;;0.20;;
52386;SDS011;38317;53.084;6.960;2022-12-07T03:15:26;2.72;;;0.43;;
52386;SDS011;38317;53.084;6.960;2022-12-07T03:17:53;4.28;;;0.40;;
52386;SDS011;38317;53.084;6.960;2022-12-07T03:20:21;2.65;;;0.20;;
52386;SDS011;38317;53.084;6.960;2022-12-07T03:22:49;2.28;;;0.20;;
52386;SDS011;38317;53.084;6.960;2022-12-07T03:25:17;4.30;;;0.88;;
52386;SDS011;38317;53.084;6.960;2022-12-07T03:30:15;4.07;;;0.40;;
52386;SDS011;38317;53.084;6.960;2022-12-07T03:35:22;3.90;;;0.60;;
52386;SDS011;38317;53.084;6.960;2022-12-07T03:38:04;5.30;;;1.30;;
52386;SDS011;38317;53.084;6.960;2022-12-07T03:40:59;1.85;;;0.50;;
52386;SDS011;38317;53.084;6.960;2022-12-07T03:43:29;5.22;;;1.50;;
52386;SDS011;38317;53.084;6.960;2022-12-07T03:46:14;4.72;;;1.70;;
52386;SDS011;38317;53.084;6.960;2022-12-07T03:54:19;7.13;;;1.67;;
52386;SDS011;38317;53.084;6.960;2022-12-07T03:56:54;2.85;;;0.60;;
52386;SDS011;38317;53.084;6.960;2022-12-07T03:59:21;1.85;;;0.57;;
52386;SDS011;38317;53.084;6.960;2022-12-07T04:01:51;2.75;;;0.40;;
52386;SDS011;38317;53.084;6.960;2022-12-07T04:04:19;4.88;;;0.75;;
52386;SDS011;38317;53.084;6.960;2022-12-07T04:06:45;2.95;;;0.40;;
52386;SDS011;38317;53.084;6.960;2022-12-07T04:09:11;4.30;;;0.68;;
52386;SDS011;38317;53.084;6.960;2022-12-07T04:11:39;2.90;;;0.28;;
52386;SDS011;38317;53.084;6.960;2022-12-07T04:14:05;3.17;;;0.50;;
52386;SDS011;38317;53.084;6.960;2022-12-07T04:17:00;0.77;;;0.32;;
52386;SDS011;38317;53.084;6.960;2022-12-07T04:19:26;3.67;;;0.50;;
52386;SDS011;38317;53.084;6.960;2022-12-07T04:21:54;3.05;;;0.32;;
52386;SDS011;38317;53.084;6.960;2022-12-07T04:24:20;2.70;;;0.30;;
52386;SDS011;38317;53.084;6.960;2022-12-07T04:26:46;1.75;;;0.30;;
52386;SDS011;38317;53.084;6.960;2022-12-07T04:29:12;1.67;;;0.50;;
52386;SDS011;38317;53.084;6.960;2022-12-07T04:31:39;2.13;;;0.30;;
52386;SDS011;38317;53.084;6.960;2022-12-07T04:34:06;4.10;;;0.32;;
52386;SDS011;38317;53.084;6.960;2022-12-07T04:36:32;4.40;;;0.52;;
52386;SDS011;38317;53.084;6.960;2022-12-07T04:38:58;2.33;;;0.20;;
52386;SDS011;38317;53.084;6.960;2022-12-07T04:41:24;3.65;;;0.57;;
52386;SDS011;38317;53.084;6.960;2022-12-07T04:43:54;2.28;;;0.30;;
52386;SDS011;38317;53.084;6.960;2022-12-07T04:46:25;0.85;;;0.28;;
52386;SDS011;38317;53.084;6.960;2022-12-07T04:48:52;2.47;;;0.45;;
52386;SDS011;38317;53.084;6.960;2022-12-07T04:51:19;6.38;;;0.63;;
52386;SDS011;38317;53.084;6.960;2022-12-07T04:53:49;3.00;;;0.70;;
52386;SDS011;38317;53.084;6.960;2022-12-07T04:56:15;2.55;;;0.47;;
52386;SDS011;38317;53.084;6.960;2022-12-07T04:58:42;3.60;;;0.20;;
52386;SDS011;38317;53.084;6.960;2022-12-07T05:01:08;5.68;;;0.40;;
52386;SDS011;38317;53.084;6.960;2022-12-07T05:03:35;1.85;;;0.20;;
52386;SDS011;38317;53.084;6.960;2022-12-07T05:06:02;4.57;;;0.40;;
52386;SDS011;38317;53.084;6.960;2022-12-07T05:08:28;1.02;;;0.10;;
52386;SDS011;38317;53.084;6.960;2022-12-07T05:10:54;2.72;;;0.40;;
52386;SDS011;38317;53.084;6.960;2022-12-07T05:13:19;4.15;;;0.70;;
52386;SDS011;38317;53.084;6.960;2022-12-07T05:15:46;1.75;;;0.20;;
52386;SDS011;38317;53.084;6.960;2022-12-07T05:18:12;2.88;;;0.30;;
52386;SDS011;38317;53.084;6.960;2022-12-07T05:20:39;4.88;;;0.38;;
52386;SDS011;38317;53.084;6.960;2022-12-07T05:23:05;5.47;;;0.30;;
52386;SDS011;38317;53.084;6.960;2022-12-07T05:25:31;1.75;;;0.25;;
52386;SDS011;38317;53.084;6.960;2022-12-07T05:27:57;2.10;;;0.20;;
52386;SDS011;38317;53.084;6.960;2022-12-07T05:30:23;4.53;;;0.35;;
52386;SDS011;38317;53.084;6.960;2022-12-07T05:32:49;1.10;;;0.20;;
52386;SDS011;38317;53.084;6.960;2022-12-07T05:35:15;2.92;;;0.35;;
52386;SDS011;38317;53.084;6.960;2022-12-07T05:37:41;3.20;;;0.40;;
52386;SDS011;38317;53.084;6.960;2022-12-07T05:40:07;2.05;;;0.30;;
52386;SDS011;38317;53.084;6.960;2022-12-07T05:42:34;3.90;;;0.65;;
52386;SDS011;38317;53.084;6.960;2022-12-07T05:45:03;2.08;;;0.65;;
52386;SDS011;38317;53.084;6.960;2022-12-07T05:47:29;1.02;;;0.35;;
52386;SDS011;38317;53.084;6.960;2022-12-07T05:49:55;2.72;;;0.30;;
52386;SDS011;38317;53.084;6.960;2022-12-07T05:52:21;2.15;;;0.30;;
52386;SDS011;38317;53.084;6.960;2022-12-07T05:54:46;1.13;;;0.20;;
52386;SDS011;38317;53.084;6.960;2022-12-07T05:57:12;0.40;;;0.10;;
52386;SDS011;38317;53.084;6.960;2022-12-07T05:59:38;3.80;;;0.55;;
52386;SDS011;38317;53.084;6.960;2022-12-07T06:02:08;5.32;;;0.45;;
52386;SDS011;38317;53.084;6.960;2022-12-07T06:04:40;2.55;;;0.30;;
52386;SDS011;38317;53.084;6.960;2022-12-07T06:07:08;0.52;;;0.10;;
52386;SDS011;38317;53.084;6.960;2022-12-07T06:09:34;1.58;;;0.28;;
52386;SDS011;38317;53.084;6.960;2022-12-07T06:12:01;2.63;;;0.40;;
52386;SDS011;38317;53.084;6.960;2022-12-07T06:14:45;6.65;;;0.80;;
52386;SDS011;38317;53.084;6.960;2022-12-07T06:17:11;3.33;;;0.55;;
52386;SDS011;38317;53.084;6.960;2022-12-07T06:19:38;1.65;;;0.40;;
52386;SDS011;38317;53.084;6.960;2022-12-07T06:22:04;1.13;;;0.20;;
52386;SDS011;38317;53.084;6.960;2022-12-07T06:24:31;4.07;;;0.40;;
52386;SDS011;38317;53.084;6.960;2022-12-07T06:26:57;3.90;;;0.45;;
52386;SDS011;38317;53.084;6.960;2022-12-07T06:29:23;4.90;;;0.88;;
52386;SDS011;38317;53.084;6.960;2022-12-07T06:31:49;5.80;;;0.30;;
52386;SDS011;38317;53.084;6.960;2022-12-07T06:34:16;3.88;;;0.50;;
52386;SDS011;38317;53.084;6.960;2022-12-07T06:36:43;1.85;;;0.20;;
52386;SDS011;38317;53.084;6.960;2022-12-07T06:39:10;5.68;;;0.52;;
52386;SDS011;38317;53.084;6.960;2022-12-07T06:41:36;3.60;;;0.60;;
52386;SDS011;38317;53.084;6.960;2022-12-07T06:44:05;4.03;;;0.30;;
52386;SDS011;38317;53.084;6.960;2022-12-07T06:46:31;4.03;;;0.40;;
52386;SDS011;38317;53.084;6.960;2022-12-07T06:48:57;4.53;;;0.30;;
52386;SDS011;38317;53.084;6.960;2022-12-07T06:51:23;1.40;;;0.35;;
52386;SDS011;38317;53.084;6.960;2022-12-07T06:53:49;4.22;;;0.68;;
52386;SDS011;38317;53.084;6.960;2022-12-07T06:56:15;8.30;;;0.50;;
52386;SDS011;38317;53.084;6.960;2022-12-07T06:58:41;7.57;;;0.80;;
52386;SDS011;38317;53.084;6.960;2022-12-07T07:01:10;3.55;;;0.75;;
52386;SDS011;38317;53.084;6.960;2022-12-07T07:03:41;3.05;;;0.38;;
52386;SDS011;38317;53.084;6.960;2022-12-07T07:06:08;2.75;;;0.65;;
52386;SDS011;38317;53.084;6.960;2022-12-07T07:08:35;2.15;;;0.43;;
52386;SDS011;38317;53.084;6.960;2022-12-07T07:11:01;0.52;;;0.10;;
52386;SDS011;38317;53.084;6.960;2022-12-07T07:13:28;1.92;;;0.30;;
52386;SDS011;38317;53.084;6.960;2022-12-07T07:15:54;4.20;;;0.60;;
52386;SDS011;38317;53.084;6.960;2022-12-07T07:18:20;2.17;;;0.47;;
52386;SDS011;38317;53.084;6.960;2022-12-07T07:20:45;4.28;;;0.70;;
52386;SDS011;38317;53.084;6.960;2022-12-07T07:23:11;3.35;;;0.43;;
52386;SDS011;38317;53.084;6.960;2022-12-07T07:25:37;3.22;;;0.40;;
52386;SDS011;38317;53.084;6.960;2022-12-07T07:28:03;4.22;;;0.30;;
52386;SDS011;38317;53.084;6.960;2022-12-07T07:30:29;2.28;;;0.40;;
52386;SDS011;38317;53.084;6.960;2022-12-07T07:32:58;3.75;;;0.38;;
52386;SDS011;38317;53.084;6.960;2022-12-07T07:35:25;3.90;;;0.63;;
52386;SDS011;38317;53.084;6.960;2022-12-07T07:37:52;3.92;;;0.60;;
52386;SDS011;38317;53.084;6.960;2022-12-07T07:40:18;1.80;;;0.25;;
52386;SDS011;38317;53.084;6.960;2022-12-07T07:42:46;3.05;;;0.43;;
52386;SDS011;38317;53.084;6.960;2022-12-07T07:45:13;2.50;;;0.70;;
52386;SDS011;38317;53.084;6.960;2022-12-07T07:47:39;4.78;;;0.75;;
52386;SDS011;38317;53.084;6.960;2022-12-07T07:50:04;4.88;;;0.55;;
52386;SDS011;38317;53.084;6.960;2022-12-07T07:52:31;3.58;;;0.50;;
52386;SDS011;38317;53.084;6.960;2022-12-07T07:54:56;2.63;;;0.55;;
52386;SDS011;38317;53.084;6.960;2022-12-07T07:57:22;4.13;;;0.35;;
52386;SDS011;38317;53.084;6.960;2022-12-07T07:59:48;2.75;;;0.20;;
52386;SDS011;38317;53.084;6.960;2022-12-07T08:02:15;4.85;;;0.47;;
52386;SDS011;38317;53.084;6.960;2022-12-07T08:04:41;2.95;;;0.43;;
52386;SDS011;38317;53.084;6.960;2022-12-07T08:07:07;1.73;;;0.40;;
52386;SDS011;38317;53.084;6.960;2022-12-07T08:09:33;2.33;;;0.30;;
52386;SDS011;38317;53.084;6.960;2022-12-07T08:11:59;0.95;;;0.20;;
52386;SDS011;38317;53.084;6.960;2022-12-07T08:14:25;5.35;;;0.52;;
52386;SDS011;38317;53.084;6.960;2022-12-07T08:16:52;1.27;;;0.20;;
52386;SDS011;38317;53.084;6.960;2022-12-07T08:19:18;2.15;;;0.17;;
52386;SDS011;38317;53.084;6.960;2022-12-07T08:21:44;2.92;;;0.43;;
52386;SDS011;38317;53.084;6.960;2022-12-07T08:24:10;4.47;;;0.30;;
52386;SDS011;38317;53.084;6.960;2022-12-07T08:26:35;3.83;;;0.40;;
52386;SDS011;38317;53.084;6.960;2022-12-07T08:29:01;3.72;;;0.50;;
52386;SDS011;38317;53.084;6.960;2022-12-07T08:31:27;0.93;;;0.20;;
52386;SDS011;38317;53.084;6.960;2022-12-07T08:33:53;2.50;;;0.50;;
52386;SDS011;38317;53.084;6.960;2022-12-07T08:36:19;3.35;;;0.60;;
52386;SDS011;38317;53.084;6.960;2022-12-07T08:38:47;2.85;;;0.40;;
52386;SDS011;38317;53.084;6.960;2022-12-07T08:41:13;4.85;;;0.85;;
52386;SDS011;38317;53.084;6.960;2022-12-07T08:43:39;1.95;;;0.30;;
52386;SDS011;38317;53.084;6.960;2022-12-07T08:48:36;2.53;;;0.22;;
52386;SDS011;38317;53.084;6.960;2022-12-07T08:51:28;4.13;;;0.52;;
52386;SDS011;38317;53.084;6.960;2022-12-07T08:53:54;2.95;;;0.45;;
52386;SDS011;38317;53.084;6.960;2022-12-07T08:56:21;3.17;;;0.68;;
52386;SDS011;38317;53.084;6.960;2022-12-07T08:58:47;2.60;;;0.45;;
52386;SDS011;38317;53.084;6.960;2022-12-07T09:01:13;2.13;;;0.30;;
52386;SDS011;38317;53.084;6.960;2022-12-07T09:03:39;6.55;;;0.70;;
52386;SDS011;38317;53.084;6.960;2022-12-07T09:06:05;3.40;;;0.65;;
52386;SDS011;38317;53.084;6.960;2022-12-07T09:08:33;6.70;;;0.60;;
52386;SDS011;38317;53.084;6.960;2022-12-07T09:11:03;1.80;;;0.35;;
52386;SDS011;38317;53.084;6.960;2022-12-07T09:13:29;3.30;;;1.00;;
52386;SDS011;38317;53.084;6.960;2022-12-07T09:15:54;3.50;;;0.80;;
52386;SDS011;38317;53.084;6.960;2022-12-07T09:18:20;4.90;;;0.47;;
52386;SDS011;38317;53.084;6.960;2022-12-07T09:20:46;1.75;;;0.40;;
52386;SDS011;38317;53.084;6.960;2022-12-07T09:23:12;8.13;;;0.60;;
52386;SDS011;38317;53.084;6.960;2022-12-07T09:25:38;2.35;;;0.43;;
52386;SDS011;38317;53.084;6.960;2022-12-07T09:28:03;6.57;;;1.55;;
52386;SDS011;38317;53.084;6.960;2022-12-07T09:30:29;3.10;;;0.70;;
52386;SDS011;38317;53.084;6.960;2022-12-07T09:32:56;2.47;;;0.43;;
52386;SDS011;38317;53.084;6.960;2022-12-07T09:35:22;2.75;;;0.80;;
52386;SDS011;38317;53.084;6.960;2022-12-07T09:37:50;4.70;;;0.60;;
52386;SDS011;38317;53.084;6.960;2022-12-07T09:40:16;7.47;;;0.75;;
52386;SDS011;38317;53.084;6.960;2022-12-07T09:42:45;0.88;;;0.30;;
52386;SDS011;38317;53.084;6.960;2022-12-07T09:45:24;5.20;;;0.55;;
52386;SDS011;38317;53.084;6.960;2022-12-07T09:48:04;8.68;;;1.58;;
52386;SDS011;38317;53.084;6.960;2022-12-07T09:50:39;2.92;;;0.50;;
52386;SDS011;38317;53.084;6.960;2022-12-07T09:53:08;7.70;;;0.77;;
52386;SDS011;38317;53.084;6.960;2022-12-07T09:55:38;3.13;;;0.47;;
52386;SDS011;38317;53.084;6.960;2022-12-07T09:58:08;3.97;;;0.70;;
52386;SDS011;38317;53.084;6.960;2022-12-07T10:00:44;5.40;;;0.88;;
52386;SDS011;38317;53.084;6.960;2022-12-07T10:03:10;3.92;;;0.80;;
52386;SDS011;38317;53.084;6.960;2022-12-07T10:05:38;2.60;;;0.40;;
52386;SDS011;38317;53.084;6.960;2022-12-07T10:10:36;11.45;;;1.13;;
52386;SDS011;38317;53.084;6.960;2022-12-07T10:13:07;4.28;;;0.90;;
52386;SDS011;38317;53.084;6.960;2022-12-07T10:18:21;3.08;;;0.80;;
52386;SDS011;38317;53.084;6.960;2022-12-07T10:24:05;5.47;;;0.87;;
52386;SDS011;38317;53.084;6.960;2022-12-07T10:31:43;4.85;;;1.00;;
52386;SDS011;38317;53.084;6.960;2022-12-07T10:34:21;4.88;;;1.00;;
52386;SDS011;38317;53.084;6.960;2022-12-07T10:36:49;2.92;;;0.85;;
52386;SDS011;38317;53.084;6.960;2022-12-07T10:39:16;5.07;;;0.93;;
52386;SDS011;38317;53.084;6.960;2022-12-07T10:42:00;6.50;;;0.55;;
52386;SDS011;38317;53.084;6.960;2022-12-07T10:58:26;7.57;;;0.85;;
52386;SDS011;38317;53.084;6.960;2022-12-07T11:06:37;5.95;;;0.85;;
52386;SDS011;38317;53.084;6.960;2022-12-07T11:12:06;2.53;;;0.68;;
52386;SDS011;38317;53.084;6.960;2022-12-07T11:14:56;3.08;;;0.50;;
52386;SDS011;38317;53.084;6.960;2022-12-07T11:31:03;3.78;;;0.60;;
52386;SDS011;38317;53.084;6.960;2022-12-07T11:33:52;5.35;;;0.70;;
52386;SDS011;38317;53.084;6.960;2022-12-07T11:36:31;4.18;;;0.50;;
52386;SDS011;38317;53.084;6.960;2022-12-07T11:39:00;3.67;;;0.60;;
52386;SDS011;38317;53.084;6.960;2022-12-07T11:41:37;4.88;;;0.70;;
52386;SDS011;38317;53.084;6.960;2022-12-07T11:52:47;4.72;;;0.70;;
52386;SDS011;38317;53.084;6.960;2022-12-07T11:57:48;3.20;;;0.55;;
52386;SDS011;38317;53.084;6.960;2022-12-07T12:00:19;4.93;;;0.80;;
52386;SDS011;38317;53.084;6.960;2022-12-07T12:02:48;5.40;;;0.63;;
52386;SDS011;38317;53.084;6.960;2022-12-07T12:05:29;3.17;;;0.47;;
52386;SDS011;38317;53.084;6.960;2022-12-07T12:10:59;2.65;;;0.50;;
52386;SDS011;38317;53.084;6.960;2022-12-07T12:16:14;1.08;;;0.25;;
52386;SDS011;38317;53.084;6.960;2022-12-07T12:19:15;1.52;;;0.32;;
52386;SDS011;38317;53.084;6.960;2022-12-07T12:22:06;1.35;;;0.32;;
52386;SDS011;38317;53.084;6.960;2022-12-07T12:24:40;1.75;;;0.47;;
52386;SDS011;38317;53.084;6.960;2022-12-07T12:27:08;1.73;;;0.38;;
52386;SDS011;38317;53.084;6.960;2022-12-07T12:29:43;3.22;;;0.32;;
52386;SDS011;38317;53.084;6.960;2022-12-07T12:32:22;2.58;;;0.43;;
52386;SDS011;38317;53.084;6.960;2022-12-07T12:38:20;1.27;;;0.30;;
52386;SDS011;38317;53.084;6.960;2022-12-07T12:46:57;0.90;;;0.20;;
52386;SDS011;38317;53.084;6.960;2022-12-07T12:57:35;2.25;;;0.90;;
52386;SDS011;38317;53.084;6.960;2022-12-07T13:00:18;3.22;;;0.40;;
52386;SDS011;38317;53.084;6.960;2022-12-07T13:02:55;3.30;;;0.40;;
52386;SDS011;38317;53.084;6.960;2022-12-07T13:05:30;2.55;;;0.45;;
52386;SDS011;38317;53.084;6.960;2022-12-07T13:08:30;4.82;;;0.50;;
52386;SDS011;38317;53.084;6.960;2022-12-07T13:10:50;2.08;;;0.43;;
52386;SDS011;38317;53.084;6.960;2022-12-07T13:15:52;7.05;;;0.47;;
52386;SDS011;38317;53.084;6.960;2022-12-07T13:26:17;2.78;;;0.30;;
52386;SDS011;38317;53.084;6.960;2022-12-07T13:34:05;1.50;;;0.28;;
52386;SDS011;38317;53.084;6.960;2022-12-07T13:36:51;4.13;;;0.55;;
52386;SDS011;38317;53.084;6.960;2022-12-07T13:39:18;1.92;;;0.57;;
52386;SDS011;38317;53.084;6.960;2022-12-07T13:41:51;2.58;;;0.60;;
52386;SDS011;38317;53.084;6.960;2022-12-07T13:44:27;5.72;;;0.57;;
52386;SDS011;38317;53.084;6.960;2022-12-07T13:49:38;1.98;;;0.35;;
52386;SDS011;38317;53.084;6.960;2022-12-07T13:52:16;2.03;;;0.30;;
52386;SDS011;38317;53.084;6.960;2022-12-07T13:54:45;3.20;;;0.52;;
52386;SDS011;38317;53.084;6.960;2022-12-07T13:57:13;4.60;;;0.65;;
52386;SDS011;38317;53.084;6.960;2022-12-07T13:59:40;2.03;;;0.28;;
52386;SDS011;38317;53.084;6.960;2022-12-07T14:02:17;4.68;;;0.57;;
52386;SDS011;38317;53.084;6.960;2022-12-07T14:04:46;1.50;;;0.35;;
52386;SDS011;38317;53.084;6.960;2022-12-07T14:07:31;3.10;;;0.57;;
52386;SDS011;38317;53.084;6.960;2022-12-07T14:12:26;2.28;;;0.50;;
52386;SDS011;38317;53.084;6.960;2022-12-07T14:14:54;4.53;;;0.40;;
52386;SDS011;38317;53.084;6.960;2022-12-07T14:17:22;4.03;;;0.57;;
52386;SDS011;38317;53.084;6.960;2022-12-07T14:19:50;3.35;;;0.50;;
52386;SDS011;38317;53.084;6.960;2022-12-07T14:24:50;2.00;;;0.30;;
52386;SDS011;38317;53.084;6.960;2022-12-07T14:27:23;1.38;;;0.20;;
52386;SDS011;38317;53.084;6.960;2022-12-07T14:29:55;3.00;;;0.32;;
52386;SDS011;38317;53.084;6.960;2022-12-07T14:32:23;0.75;;;0.10;;
52386;SDS011;38317;53.084;6.960;2022-12-07T14:34:54;1.05;;;0.22;;
52386;SDS011;38317;53.084;6.960;2022-12-07T14:37:28;3.88;;;0.40;;
52386;SDS011;38317;53.084;6.960;2022-12-07T14:39:55;0.93;;;0.30;;
52386;SDS011;38317;53.084;6.960;2022-12-07T14:42:21;1.95;;;0.47;;
52386;SDS011;38317;53.084;6.960;2022-12-07T14:44:51;0.75;;;0.10;;
52386;SDS011;38317;53.084;6.960;2022-12-07T14:47:17;3.53;;;0.17;;
52386;SDS011;38317;53.084;6.960;2022-12-07T14:49:43;1.40;;;0.32;;
52386;SDS011;38317;53.084;6.960;2022-12-07T14:52:30;2.47;;;0.68;;
52386;SDS011;38317;53.084;6.960;2022-12-07T14:54:58;7.10;;;0.20;;
52386;SDS011;38317;53.084;6.960;2022-12-07T14:57:23;0.80;;;0.10;;
52386;SDS011;38317;53.084;6.960;2022-12-07T14:59:49;1.88;;;0.30;;
52386;SDS011;38317;53.084;6.960;2022-12-07T15:02:15;0.60;;;0.20;;
52386;SDS011;38317;53.084;6.960;2022-12-07T15:04:41;1.48;;;0.30;;
52386;SDS011;38317;53.084;6.960;2022-12-07T15:07:25;0.47;;;0.10;;
52386;SDS011;38317;53.084;6.960;2022-12-07T15:09:51;3.35;;;0.32;;
52386;SDS011;38317;53.084;6.960;2022-12-07T15:12:17;0.90;;;0.25;;
52386;SDS011;38317;53.084;6.960;2022-12-07T15:14:42;1.02;;;0.32;;
52386;SDS011;38317;53.084;6.960;2022-12-07T15:17:10;0.70;;;0.22;;
52386;SDS011;38317;53.084;6.960;2022-12-07T15:19:37;4.68;;;0.50;;
52386;SDS011;38317;53.084;6.960;2022-12-07T15:22:03;1.88;;;0.52;;
52386;SDS011;38317;53.084;6.960;2022-12-07T15:24:29;2.10;;;0.30;;
52386;SDS011;38317;53.084;6.960;2022-12-07T15:26:55;4.13;;;0.30;;
52386;SDS011;38317;53.084;6.960;2022-12-07T15:29:21;0.88;;;0.30;;
52386;SDS011;38317;53.084;6.960;2022-12-07T15:31:47;2.90;;;0.40;;
52386;SDS011;38317;53.084;6.960;2022-12-07T15:34:14;4.45;;;0.60;;
52386;SDS011;38317;53.084;6.960;2022-12-07T15:36:40;1.88;;;0.40;;
52386;SDS011;38317;53.084;6.960;2022-12-07T15:39:05;2.45;;;0.40;;
52386;SDS011;38317;53.084;6.960;2022-12-07T15:41:31;3.67;;;0.57;;
52386;SDS011;38317;53.084;6.960;2022-12-07T15:43:57;3.75;;;0.40;;
52386;SDS011;38317;53.084;6.960;2022-12-07T15:46:41;3.10;;;0.47;;
52386;SDS011;38317;53.084;6.960;2022-12-07T15:49:12;2.53;;;0.47;;
52386;SDS011;38317;53.084;6.960;2022-12-07T15:51:39;3.10;;;0.45;;
52386;SDS011;38317;53.084;6.960;2022-12-07T15:54:06;2.60;;;0.50;;
52386;SDS011;38317;53.084;6.960;2022-12-07T15:56:32;1.25;;;0.40;;
52386;SDS011;38317;53.084;6.960;2022-12-07T15:58:58;0.95;;;0.30;;
52386;SDS011;38317;53.084;6.960;2022-12-07T16:01:23;2.03;;;0.32;;
52386;SDS011;38317;53.084;6.960;2022-12-07T16:03:49;3.38;;;0.52;;
52386;SDS011;38317;53.084;6.960;2022-12-07T16:06:16;1.27;;;0.47;;
52386;SDS011;38317;53.084;6.960;2022-12-07T16:08:43;2.50;;;0.40;;
52386;SDS011;38317;53.084;6.960;2022-12-07T16:11:10;1.67;;;0.50;;
52386;SDS011;38317;53.084;6.960;2022-12-07T16:13:36;0.90;;;0.40;;
52386;SDS011;38317;53.084;6.960;2022-12-07T16:16:10;0.82;;;0.25;;
52386;SDS011;38317;53.084;6.960;2022-12-07T16:18:38;3.10;;;0.35;;
52386;SDS011;38317;53.084;6.960;2022-12-07T16:21:04;1.70;;;0.40;;
52386;SDS011;38317;53.084;6.960;2022-12-07T16:23:29;3.03;;;0.30;;
52386;SDS011;38317;53.084;6.960;2022-12-07T16:26:03;2.30;;;0.38;;
52386;SDS011;38317;53.084;6.960;2022-12-07T16:28:30;5.15;;;0.77;;
52386;SDS011;38317;53.084;6.960;2022-12-07T16:31:06;2.42;;;0.32;;
52386;SDS011;38317;53.084;6.960;2022-12-07T16:33:40;1.58;;;0.20;;
52386;SDS011;38317;53.084;6.960;2022-12-07T16:36:08;2.75;;;0.35;;
52386;SDS011;38317;53.084;6.960;2022-12-07T16:38:35;1.00;;;0.17;;
52386;SDS011;38317;53.084;6.960;2022-12-07T16:41:02;1.75;;;0.40;;
52386;SDS011;38317;53.084;6.960;2022-12-07T16:43:29;1.65;;;0.47;;
52386;SDS011;38317;53.084;6.960;2022-12-07T16:45:54;3.35;;;0.95;;
52386;SDS011;38317;53.084;6.960;2022-12-07T16:48:20;4.38;;;1.48;;
52386;SDS011;38317;53.084;6.960;2022-12-07T16:50:46;8.43;;;3.72;;
52386;SDS011;38317;53.084;6.960;2022-12-07T16:53:12;7.20;;;2.95;;
52386;SDS011;38317;53.084;6.960;2022-12-07T16:55:40;12.32;;;3.65;;
52386;SDS011;38317;53.084;6.960;2022-12-07T16:58:11;7.20;;;2.70;;
52386;SDS011;38317;53.084;6.960;2022-12-07T17:00:38;7.68;;;3.58;;
52386;SDS011;38317;53.084;6.960;2022-12-07T17:03:04;8.23;;;3.55;;
52386;SDS011;38317;53.084;6.960;2022-12-07T17:05:30;5.28;;;2.38;;
52386;SDS011;38317;53.084;6.960;2022-12-07T17:07:56;4.53;;;2.10;;
52386;SDS011;38317;53.084;6.960;2022-12-07T17:10:23;4.95;;;2.40;;
52386;SDS011;38317;53.084;6.960;2022-12-07T17:12:50;6.38;;;2.35;;
52386;SDS011;38317;53.084;6.960;2022-12-07T17:15:16;8.40;;;3.20;;
52386;SDS011;38317;53.084;6.960;2022-12-07T17:17:53;4.57;;;2.13;;
52386;SDS011;38317;53.084;6.960;2022-12-07T17:20:20;3.47;;;1.25;;
52386;SDS011;38317;53.084;6.960;2022-12-07T17:22:47;3.25;;;1.38;;
52386;SDS011;38317;53.084;6.960;2022-12-07T17:25:14;3.83;;;1.00;;